Time;durP1;ratioP1;P1;durP2;ratioP2;P2;SDS_P1;SDS_P2;PMS_P1;PMS_P2;Temp;Humidity;BMP_temperature;BMP_pressure;BME280_temperature;BME280_humidity;BME280_pressure;Samples;Min_cycle;Max_cycle;Signal;HPM_P1;HPM_P2
2022/09/11 00:01:00;;;;;;;1.77;1.30;;;;;;;14.03;100.00;96162.42;1709838;83;20966;-87
2022/09/11 00:03:28;;;;;;;3.37;1.37;;;;;;;14.03;100.00;96161.92;1691108;83;20988;-86
2022/09/11 00:05:54;;;;;;;1.60;1.10;;;;;;;14.04;100.00;96158.30;1716580;83;20972;-86
2022/09/11 00:08:20;;;;;;;2.22;1.32;;;;;;;14.03;100.00;96154.59;1705817;83;21022;-87
2022/09/11 00:10:47;;;;;;;3.42;1.27;;;;;;;14.01;100.00;96154.80;1693032;83;20984;-86
2022/09/11 00:13:19;;;;;;;2.35;1.30;;;;;;;14.01;100.00;96156.61;1691047;83;21043;-87
2022/09/11 00:15:44;;;;;;;4.12;1.20;;;;;;;13.99;100.00;96157.30;1718674;83;21008;-87
2022/09/11 00:18:12;;;;;;;1.92;1.07;;;;;;;14.01;100.00;96151.39;1697456;83;21104;-86
2022/09/11 00:20:38;;;;;;;2.15;1.07;;;;;;;13.99;100.00;96150.30;1698222;83;21473;-86
2022/09/11 00:23:04;;;;;;;1.98;1.05;;;;;;;13.99;100.00;96154.69;1670929;84;20925;-87
2022/09/11 00:25:33;;;;;;;2.05;1.07;;;;;;;13.98;100.00;96151.27;1702399;83;21335;-86
2022/09/11 00:28:00;;;;;;;2.80;1.15;;;;;;;13.99;100.00;96155.99;1715094;83;20988;-86
2022/09/11 00:30:26;;;;;;;2.85;1.00;;;;;;;13.97;100.00;96152.28;1712636;83;20956;-86
2022/09/11 00:32:52;;;;;;;2.42;1.15;;;;;;;13.99;100.00;96155.99;1724763;83;20988;-86
2022/09/11 00:35:17;;;;;;;2.83;1.22;;;;;;;14.00;100.00;96154.50;1718967;83;20933;-86
2022/09/11 00:37:43;;;;;;;3.50;1.55;;;;;;;13.99;99.86;96152.08;1705155;83;21313;-86
2022/09/11 00:40:09;;;;;;;3.90;1.30;;;;;;;13.99;99.99;96151.59;1721112;83;20953;-86
2022/09/11 00:42:35;;;;;;;1.90;1.20;;;;;;;14.01;99.79;96151.39;1721177;83;20986;-87
2022/09/11 00:45:05;;;;;;;4.80;1.30;;;;;;;14.00;99.95;96153.70;1727034;83;21028;-86
2022/09/11 00:47:31;;;;;;;2.35;1.62;;;;;;;13.99;99.77;96155.52;1706296;83;21008;-85
2022/09/11 00:50:03;;;;;;;2.85;1.45;;;;;;;13.99;99.88;96153.38;1706766;83;21068;-86
2022/09/11 00:52:33;;;;;;;3.47;1.10;;;;;;;13.99;99.77;96154.69;1717198;83;20991;-86
2022/09/11 00:55:04;;;;;;;2.02;1.22;;;;;;;14.00;99.93;96157.12;1696052;83;20972;-87
2022/09/11 00:57:33;;;;;;;2.75;1.40;;;;;;;13.99;99.23;96151.59;1720987;83;21374;-86
2022/09/11 00:59:59;;;;;;;1.22;0.98;;;;;;;13.98;99.12;96152.58;1715071;83;20987;-86
2022/09/11 01:02:26;;;;;;;1.95;1.10;;;;;;;13.95;98.75;96157.42;1698093;83;21061;-86
2022/09/11 01:04:53;;;;;;;1.07;0.90;;;;;;;13.93;98.47;96158.14;1701895;83;21343;-86
2022/09/11 01:07:18;;;;;;;2.35;1.62;;;;;;;13.93;98.90;96153.72;1701211;84;22097;-86
2022/09/11 01:09:44;;;;;;;1.55;1.05;;;;;;;13.95;99.09;96151.70;1690129;83;20933;-86
2022/09/11 01:12:35;;;;;;;2.77;1.27;;;;;;;13.94;98.82;96148.79;1701978;83;20980;-86
2022/09/11 01:15:15;;;;;;;2.37;1.07;;;;;;;13.93;98.93;96153.72;1686419;84;21088;-86
2022/09/11 01:18:12;;;;;;;2.02;1.10;;;;;;;13.94;98.71;96151.91;1706285;83;21077;-86
2022/09/11 01:20:58;;;;;;;1.87;1.25;;;;;;;13.92;99.04;96152.63;1708203;83;20975;-88
2022/09/11 01:23:59;;;;;;;3.52;1.32;;;;;;;13.90;98.58;96150.73;1697650;83;20985;-89
2022/09/11 01:26:33;;;;;;;6.17;1.92;;;;;;;13.89;98.78;96158.27;1720580;83;21359;-89
2022/09/11 01:29:28;;;;;;;5.08;2.75;;;;;;;13.87;99.06;96165.01;1721936;83;20963;-88
2022/09/11 01:32:05;;;;;;;4.47;2.40;;;;;;;13.84;98.92;96157.59;1666332;85;20993;-88
2022/09/11 01:34:45;;;;;;;5.37;2.65;;;;;;;13.83;99.00;96148.16;1715711;83;21336;-87
2022/09/11 01:37:16;;;;;;;5.22;2.55;;;;;;;13.82;98.79;96156.97;1688436;84;20997;-87
2022/09/11 01:39:47;;;;;;;7.22;3.22;;;;;;;13.82;98.93;96158.27;1690146;84;20961;-87
2022/09/11 01:42:13;;;;;;;4.45;2.60;;;;;;;13.82;98.78;96147.83;1694889;83;21011;-88
2022/09/11 01:44:56;;;;;;;6.87;3.22;;;;;;;13.82;98.86;96143.41;1695772;83;21047;-87
2022/09/11 01:47:22;;;;;;;4.45;3.30;;;;;;;13.83;98.87;96141.63;1704019;83;20936;-87
2022/09/11 01:50:08;;;;;;;6.10;3.58;;;;;;;13.87;98.95;96138.09;1724898;83;21028;-87
2022/09/11 01:52:44;;;;;;;4.47;3.15;;;;;;;13.86;98.68;96136.48;1703972;83;21056;-87
2022/09/11 01:55:24;;;;;;;5.97;3.42;;;;;;;13.86;98.86;96135.98;1706602;84;21112;-87
2022/09/11 01:57:59;;;;;;;4.95;2.83;;;;;;;13.86;98.55;96133.38;1702811;83;20975;-87
2022/09/11 02:00:25;;;;;;;5.08;3.72;;;;;;;13.86;98.32;96126.04;1707544;83;20944;-87
2022/09/11 02:02:58;;;;;;;5.25;3.58;;;;;;;13.87;98.46;96135.48;1704962;83;21031;-87
2022/09/11 02:05:29;;;;;;;4.97;3.60;;;;;;;13.87;98.25;96132.36;1696116;83;20960;-87
2022/09/11 02:08:05;;;;;;;5.95;3.47;;;;;;;13.89;98.48;96126.92;1698100;83;21044;-87
2022/09/11 02:10:42;;;;;;;5.10;3.58;;;;;;;13.90;98.47;96128.52;1721702;83;21052;-87
2022/09/11 02:13:15;;;;;;;4.72;4.05;;;;;;;13.91;98.62;96124.39;1712665;83;21071;-87
2022/09/11 02:15:50;;;;;;;6.25;3.58;;;;;;;13.93;98.60;96126.80;1715754;83;21080;-87
2022/09/11 02:18:25;;;;;;;4.42;3.50;;;;;;;13.94;98.54;96134.92;1708888;83;21029;-87
2022/09/11 02:20:52;;;;;;;7.08;3.83;;;;;;;13.93;98.68;96134.13;1726125;83;21024;-87
2022/09/11 02:23:18;;;;;;;4.60;3.72;;;;;;;13.92;98.75;96133.83;1715339;83;21328;-87
2022/09/11 02:25:44;;;;;;;5.92;3.98;;;;;;;13.92;98.32;96135.14;1705078;83;21016;-87
2022/09/11 02:28:11;;;;;;;6.42;3.65;;;;;;;13.93;98.29;96133.33;1696624;83;20967;-87
2022/09/11 02:30:38;;;;;;;6.62;3.62;;;;;;;13.92;98.25;96129.91;1707163;83;21027;-87
2022/09/11 02:33:04;;;;;;;6.85;3.67;;;;;;;13.93;98.17;96133.33;1714853;83;21027;-87
2022/09/11 02:35:35;;;;;;;6.83;3.58;;;;;;;13.92;98.05;96129.11;1699313;83;21016;-87
2022/09/11 02:38:06;;;;;;;3.85;2.85;;;;;;;13.91;98.28;96132.73;1688235;84;20945;-87
2022/09/11 02:40:41;;;;;;;5.08;3.77;;;;;;;13.90;98.25;96131.94;1704940;83;20981;-87
2022/09/11 02:43:50;;;;;;;6.47;4.28;;;;;;;13.89;98.56;96132.15;1724649;83;20964;-86
2022/09/11 02:46:49;;;;;;;6.30;3.85;;;;;;;13.89;98.33;96129.03;1602447;87;21021;-87
2022/09/11 02:49:34;;;;;;;6.30;3.67;;;;;;;13.87;98.22;96124.52;1600686;89;20957;-86
2022/09/11 02:52:05;;;;;;;7.75;4.17;;;;;;;13.85;98.55;96128.36;1681723;83;21052;-87
2022/09/11 02:54:58;;;;;;;5.28;3.35;;;;;;;13.82;98.77;96132.95;1727979;83;21052;-86
2022/09/11 02:57:35;;;;;;;6.45;3.33;;;;;;;13.82;98.65;96132.16;1700513;83;21023;-87
2022/09/11 03:00:04;;;;;;;4.17;2.90;;;;;;;13.80;98.53;96127.66;1696004;83;20928;-87
2022/09/11 03:02:30;;;;;;;5.53;3.85;;;;;;;13.79;98.70;96123.44;1717781;83;21040;-87
2022/09/11 03:04:56;;;;;;;6.70;3.35;;;;;;;13.78;98.66;96125.76;1702646;83;21054;-87
2022/09/11 03:07:24;;;;;;;4.60;2.90;;;;;;;13.78;98.86;96127.06;1729973;83;21060;-87
2022/09/11 03:09:51;;;;;;;5.12;2.98;;;;;;;13.79;98.81;96132.58;1725020;83;21118;-87
2022/09/11 03:12:17;;;;;;;5.00;2.50;;;;;;;13.80;98.76;96121.13;1713423;83;21331;-87
2022/09/11 03:14:43;;;;;;;5.17;2.52;;;;;;;13.81;98.76;96126.14;1709454;83;20917;-87
2022/09/11 03:17:09;;;;;;;3.83;2.40;;;;;;;13.81;98.81;96126.14;1711041;83;21047;-87
2022/09/11 03:19:34;;;;;;;5.53;2.92;;;;;;;13.81;98.82;96124.83;1705863;83;20972;-86
2022/09/11 03:22:01;;;;;;;5.15;2.20;;;;;;;13.83;98.78;96124.65;1698002;83;20941;-87
2022/09/11 03:24:28;;;;;;;4.22;2.05;;;;;;;13.82;98.92;96130.86;1703035;83;21044;-87
2022/09/11 03:26:53;;;;;;;3.10;2.00;;;;;;;13.81;98.82;96126.14;1712716;83;20959;-87
2022/09/11 03:29:19;;;;;;;4.30;2.10;;;;;;;13.80;98.79;96128.96;1699637;83;21095;-87
2022/09/11 03:31:46;;;;;;;2.98;1.70;;;;;;;13.80;98.83;96127.15;1705075;83;21497;-87
2022/09/11 03:34:12;;;;;;;3.52;1.82;;;;;;;13.80;98.60;96134.18;1714681;83;21032;-87
2022/09/11 03:36:39;;;;;;;3.72;2.58;;;;;;;13.80;98.86;96127.66;1715476;83;21059;-86
2022/09/11 03:39:05;;;;;;;4.33;2.10;;;;;;;13.81;98.67;96130.56;1691189;83;21382;-87
2022/09/11 03:41:31;;;;;;;4.72;2.35;;;;;;;13.80;98.75;96130.27;1716996;83;20964;-87
2022/09/11 03:43:57;;;;;;;4.53;2.40;;;;;;;13.81;98.98;96131.87;1707152;83;20972;-87
2022/09/11 03:46:23;;;;;;;3.95;2.12;;;;;;;13.81;98.86;96133.17;1693549;83;21055;-87
2022/09/11 03:48:49;;;;;;;5.53;1.90;;;;;;;13.81;98.76;96125.34;1706022;83;20913;-87
2022/09/11 03:51:15;;;;;;;2.83;1.85;;;;;;;13.80;98.64;96125.84;1719653;83;21009;-87
2022/09/11 03:53:41;;;;;;;3.05;1.80;;;;;;;13.79;98.63;96122.94;1719856;83;20957;-87
2022/09/11 03:56:06;;;;;;;4.05;1.57;;;;;;;13.78;98.61;96121.84;1699705;83;21356;-87
2022/09/11 03:58:33;;;;;;;2.62;2.00;;;;;;;13.78;98.49;96118.72;1717499;83;21036;-87
2022/09/11 04:00:58;;;;;;;3.12;1.82;;;;;;;13.77;98.25;96118.94;1717651;83;21363;-87
2022/09/11 04:03:24;;;;;;;2.77;1.80;;;;;;;13.74;98.36;96117.55;1699836;83;20944;-87
2022/09/11 04:05:59;;;;;;;3.47;1.90;;;;;;;13.76;98.21;96114.22;1719825;83;21012;-87
2022/09/11 04:08:25;;;;;;;3.42;1.70;;;;;;;13.75;98.37;96117.84;1694563;83;21012;-87
2022/09/11 04:11:01;;;;;;;3.47;1.70;;;;;;;13.77;98.24;96109.29;1885035;74;22922;-86
2022/09/11 04:13:35;;;;;;;2.30;1.52;;;;;;;13.74;98.12;96111.52;1828955;77;20947;-86
2022/09/11 04:16:03;;;;;;;3.60;1.70;;;;;;;13.72;98.22;96110.93;1839946;76;20962;-86
2022/09/11 04:18:33;;;;;;;3.15;1.80;;;;;;;13.72;98.16;96110.93;1842121;76;20963;-86
2022/09/11 04:21:04;;;;;;;3.83;1.62;;;;;;;13.69;98.10;96110.84;1839090;75;21008;-86
2022/09/11 04:23:30;;;;;;;3.15;1.90;;;;;;;13.67;98.04;96112.06;1855492;76;20943;-86
2022/09/11 04:25:57;;;;;;;2.80;1.65;;;;;;;13.66;98.16;96115.66;1837911;75;20893;-86
2022/09/11 04:28:22;;;;;;;4.00;1.85;;;;;;;13.65;98.36;96110.14;1831898;77;20982;-86
2022/09/11 04:30:48;;;;;;;1.70;1.55;;;;;;;13.66;98.39;96111.23;1851026;75;20965;-86
2022/09/11 04:33:14;;;;;;;2.92;1.67;;;;;;;13.68;98.37;96114.97;1845556;77;20923;-86
2022/09/11 04:35:39;;;;;;;3.98;1.50;;;;;;;13.67;98.51;96112.87;1861060;75;20932;-86
2022/09/11 04:38:06;;;;;;;2.10;1.70;;;;;;;13.69;98.72;96110.84;1883987;75;20915;-86
2022/09/11 04:40:33;;;;;;;1.98;1.80;;;;;;;13.70;98.69;96113.75;1881671;75;21050;-86
2022/09/11 04:43:00;;;;;;;2.20;1.95;;;;;;;13.70;98.65;96107.23;1865057;75;21365;-85
2022/09/11 04:45:32;;;;;;;3.52;2.05;;;;;;;13.72;98.46;96110.93;1847247;77;21037;-83
2022/09/11 04:47:56;;;;;;;2.35;2.15;;;;;;;13.74;98.71;96106.30;1858630;75;21007;-84
2022/09/11 04:50:21;;;;;;;2.45;1.70;;;;;;;13.76;98.77;96103.77;1861741;76;20999;-84
2022/09/11 04:52:47;;;;;;;3.72;1.85;;;;;;;13.76;98.78;96110.80;1861636;76;21023;-84
2022/09/11 04:55:13;;;;;;;3.60;2.00;;;;;;;13.77;98.85;96110.59;1876733;76;20954;-84
2022/09/11 04:57:39;;;;;;;2.87;1.90;;;;;;;13.78;98.55;96107.48;1831681;76;21294;-84
2022/09/11 05:00:07;;;;;;;2.60;1.92;;;;;;;13.80;98.65;96108.87;1855705;76;21011;-85
2022/09/11 05:02:33;;;;;;;4.08;1.87;;;;;;;13.82;98.59;96108.66;1862431;76;20926;-84
2022/09/11 05:04:59;;;;;;;2.47;1.62;;;;;;;13.84;98.84;96115.00;1880152;76;21259;-85
2022/09/11 05:07:25;;;;;;;2.62;1.82;;;;;;;13.86;98.64;96107.77;1841977;75;20919;-88
2022/09/11 05:09:53;;;;;;;3.20;1.70;;;;;;;13.87;98.88;96111.97;1858605;77;21032;-88
2022/09/11 05:12:20;;;;;;;5.03;2.60;;;;;;;13.88;99.07;96111.77;1860973;76;20933;-88
2022/09/11 05:14:46;;;;;;;3.37;2.45;;;;;;;13.89;98.84;96113.86;1855211;77;20988;-87
2022/09/11 05:17:12;;;;;;;3.62;2.22;;;;;;;13.90;98.65;96114.16;1848737;76;20922;-87
2022/09/11 05:19:39;;;;;;;2.80;1.65;;;;;;;13.88;99.05;96109.15;1821810;77;21344;-84
2022/09/11 05:22:06;;;;;;;2.27;1.52;;;;;;;13.89;99.01;96113.86;1824567;76;21054;-83
2022/09/11 05:24:32;;;;;;;2.92;1.55;;;;;;;13.89;98.75;96111.25;1831350;77;21016;-84
2022/09/11 05:26:58;;;;;;;3.15;1.72;;;;;;;13.89;99.19;96117.28;1845923;77;20969;-84
2022/09/11 05:29:28;;;;;;;2.20;1.87;;;;;;;13.90;99.04;96115.47;1831241;76;21387;-84
2022/09/11 05:31:51;;;;;;;3.15;1.70;;;;;;;13.92;99.44;96110.33;1861876;76;20903;-84
2022/09/11 05:34:17;;;;;;;2.55;1.72;;;;;;;13.95;99.80;96115.63;1855528;77;20980;-84
2022/09/11 05:36:44;;;;;;;2.27;1.90;;;;;;;13.93;99.64;96116.34;1864948;76;21235;-84
2022/09/11 05:39:10;;;;;;;2.67;2.25;;;;;;;13.87;99.71;96115.39;1846465;76;21500;-84
2022/09/11 05:41:36;;;;;;;3.52;2.60;;;;;;;13.85;99.86;96123.13;1857388;76;20907;-84
2022/09/11 05:44:02;;;;;;;2.52;1.85;;;;;;;13.78;100.00;96123.95;1852506;76;20937;-84
2022/09/11 05:46:28;;;;;;;3.62;2.77;;;;;;;13.76;100.00;96125.97;1853670;76;20938;-83
2022/09/11 05:48:54;;;;;;;3.58;2.65;;;;;;;13.75;100.00;96130.09;1839966;77;20974;-84
2022/09/11 05:51:20;;;;;;;2.87;2.60;;;;;;;13.75;100.00;96131.40;1850568;76;20970;-84
2022/09/11 05:53:56;;;;;;;4.37;2.90;;;;;;;13.74;100.00;96134.52;1856761;76;21349;-83
2022/09/11 05:56:23;;;;;;;4.58;3.00;;;;;;;13.74;100.00;96131.91;1835608;76;20995;-84
2022/09/11 05:58:52;;;;;;;3.72;2.80;;;;;;;13.78;100.00;96136.20;1827152;77;21264;-84
2022/09/11 06:01:21;;;;;;;4.22;3.17;;;;;;;13.82;100.00;96132.16;1843527;76;20964;-84
2022/09/11 06:03:48;;;;;;;2.75;2.45;;;;;;;13.85;100.00;96136.19;1821669;76;21020;-84
2022/09/11 06:06:15;;;;;;;4.78;3.22;;;;;;;13.86;100.00;96140.41;1861949;76;20946;-84
2022/09/11 06:08:44;;;;;;;5.25;3.50;;;;;;;13.89;100.00;96134.77;1854026;77;20957;-84
2022/09/11 06:11:12;;;;;;;4.10;3.10;;;;;;;13.92;100.00;96136.95;1842325;76;20987;-84
2022/09/11 06:13:41;;;;;;;3.70;2.80;;;;;;;13.96;100.00;96141.55;1839670;77;20919;-84
2022/09/11 06:16:10;;;;;;;4.25;3.02;;;;;;;13.97;100.00;96141.03;1839472;77;20993;-83
2022/09/11 06:18:36;;;;;;;4.03;3.17;;;;;;;13.99;100.00;96137.70;1828199;77;20923;-84
2022/09/11 06:21:08;;;;;;;4.03;3.02;;;;;;;13.98;100.00;96140.02;1819867;77;21326;-84
2022/09/11 06:23:34;;;;;;;4.97;3.10;;;;;;;13.97;100.00;96144.45;1789430;79;20947;-84
2022/09/11 06:26:07;;;;;;;4.25;3.00;;;;;;;13.97;100.00;96144.95;1837782;77;20938;-84
2022/09/11 06:28:38;;;;;;;4.55;3.70;;;;;;;13.98;100.00;96149.17;1839378;77;21417;-84
2022/09/11 06:31:04;;;;;;;3.30;3.00;;;;;;;14.01;100.00;96150.08;1815152;77;20986;-84
2022/09/11 06:33:32;;;;;;;4.70;3.37;;;;;;;14.05;100.00;96144.73;1826128;77;21301;-84
2022/09/11 06:35:59;;;;;;;4.95;3.35;;;;;;;14.09;100.00;96149.32;1829599;77;20946;-84
2022/09/11 06:38:25;;;;;;;3.90;3.35;;;;;;;14.12;100.00;96148.89;1837929;77;20911;-85
2022/09/11 06:40:52;;;;;;;4.35;2.98;;;;;;;14.13;100.00;96143.96;1839413;77;21361;-84
2022/09/11 06:43:18;;;;;;;3.47;3.17;;;;;;;14.21;100.00;96145.55;1816280;77;20940;-84
2022/09/11 06:45:47;;;;;;;5.37;3.62;;;;;;;14.29;100.00;96147.09;1811526;78;20941;-84
2022/09/11 06:48:12;;;;;;;5.08;3.37;;;;;;;14.34;100.00;96151.20;1804828;78;21329;-84
2022/09/11 06:50:39;;;;;;;3.27;2.87;;;;;;;14.38;100.00;96156.30;1816606;79;20940;-84
2022/09/11 06:53:08;;;;;;;4.83;3.17;;;;;;;14.42;100.00;96153.05;1800371;80;21033;-84
2022/09/11 06:55:34;;;;;;;4.28;3.50;;;;;;;14.49;100.00;96154.87;1791288;77;20945;-84
2022/09/11 06:58:01;;;;;;;5.17;3.50;;;;;;;14.48;100.00;96155.85;1768535;80;21112;-84
2022/09/11 07:00:27;;;;;;;3.80;3.40;;;;;;;14.52;100.00;96151.31;1790136;79;21010;-84
2022/09/11 07:02:53;;;;;;;4.55;3.30;;;;;;;14.59;100.00;96156.48;1790672;79;20951;-84
2022/09/11 07:05:21;;;;;;;4.00;3.40;;;;;;;14.63;100.00;96155.84;1784785;79;20896;-84
2022/09/11 07:07:49;;;;;;;3.80;3.45;;;;;;;14.68;100.00;96152.61;1768694;79;20962;-84
2022/09/11 07:10:15;;;;;;;4.62;4.22;;;;;;;14.73;100.00;96148.05;1776235;80;21068;-84
2022/09/11 07:12:41;;;;;;;3.85;3.55;;;;;;;14.81;100.00;96151.72;1803519;78;20995;-85
2022/09/11 07:15:08;;;;;;;3.98;2.87;;;;;;;14.83;100.00;96151.80;1786692;78;21303;-84
2022/09/11 07:17:35;;;;;;;3.17;2.87;;;;;;;14.79;99.69;96142.75;1786246;78;20982;-84
2022/09/11 07:20:05;;;;;;;3.75;3.45;;;;;;;14.77;99.59;96144.78;1792711;78;21368;-84
2022/09/11 07:22:31;;;;;;;6.03;4.15;;;;;;;14.73;99.25;96140.20;1816304;78;20962;-84
2022/09/11 07:24:56;;;;;;;6.78;5.53;;;;;;;14.66;99.54;96142.88;1808143;78;20970;-84
2022/09/11 07:27:22;;;;;;;7.08;5.28;;;;;;;14.63;100.00;96151.13;1808355;79;21278;-84
2022/09/11 07:29:48;;;;;;;6.45;4.60;;;;;;;14.59;100.00;96145.52;1783189;78;21017;-84
2022/09/11 07:32:14;;;;;;;4.42;3.12;;;;;;;14.60;100.00;96148.94;1789189;79;20939;-84
2022/09/11 07:34:39;;;;;;;5.87;4.62;;;;;;;14.55;99.58;96150.89;1824141;78;21029;-84
2022/09/11 07:37:05;;;;;;;6.05;3.92;;;;;;;14.53;99.95;96146.38;1792400;78;21250;-84
2022/09/11 07:39:31;;;;;;;5.05;3.72;;;;;;;14.55;100.00;96156.12;1816796;78;21289;-84
2022/09/11 07:41:56;;;;;;;4.90;4.12;;;;;;;14.52;100.00;96144.78;1787139;78;20955;-84
2022/09/11 07:44:22;;;;;;;5.03;3.22;;;;;;;14.56;100.00;96156.41;1828386;78;20944;-84
2022/09/11 07:46:50;;;;;;;3.67;3.37;;;;;;;14.52;99.43;96167.52;1798739;78;20974;-84
2022/09/11 07:49:16;;;;;;;4.22;2.85;;;;;;;14.46;98.74;96165.72;1779792;78;20933;-84
2022/09/11 07:51:42;;;;;;;2.95;2.35;;;;;;;14.44;98.32;96163.83;1776496;79;20989;-84
2022/09/11 07:54:11;;;;;;;4.05;2.85;;;;;;;14.44;98.56;96164.63;1798458;78;21402;-84
2022/09/11 07:56:37;;;;;;;3.08;2.30;;;;;;;14.45;98.68;96165.42;1785670;78;20975;-84
2022/09/11 07:59:08;;;;;;;4.42;2.75;;;;;;;14.47;98.58;96160.78;1781899;78;21262;-84
2022/09/11 08:01:33;;;;;;;6.15;4.70;;;;;;;14.47;98.71;96164.20;1793207;78;21375;-84
2022/09/11 08:04:02;;;;;;;4.55;3.25;;;;;;;14.46;98.50;96164.41;1795459;78;21065;-84
2022/09/11 08:06:32;;;;;;;3.20;2.72;;;;;;;14.44;98.66;96160.70;1803247;78;20968;-84
2022/09/11 08:09:01;;;;;;;3.22;2.92;;;;;;;14.48;98.83;96159.30;1815325;78;21394;-84
2022/09/11 08:11:28;;;;;;;3.67;2.90;;;;;;;14.50;98.83;96161.70;1808777;78;21013;-83
2022/09/11 08:13:54;;;;;;;3.75;3.08;;;;;;;14.50;99.39;96166.42;1774016;78;21353;-84
2022/09/11 08:16:23;;;;;;;2.90;2.60;;;;;;;14.52;99.16;96166.20;1804314;79;20960;-84
2022/09/11 08:18:49;;;;;;;3.15;2.85;;;;;;;14.55;99.05;96168.39;1804316;78;20985;-83
2022/09/11 08:21:15;;;;;;;3.22;2.77;;;;;;;14.57;99.25;96168.47;1830414;78;21330;-84
2022/09/11 08:23:42;;;;;;;3.27;3.08;;;;;;;14.62;99.25;96164.70;1818841;78;20958;-84
2022/09/11 08:26:15;;;;;;;3.65;3.35;;;;;;;14.67;99.91;96160.16;1802425;78;21257;-85
2022/09/11 08:28:42;;;;;;;3.85;3.55;;;;;;;14.69;99.40;96165.98;1802879;79;20998;-84
2022/09/11 08:31:07;;;;;;;4.10;3.52;;;;;;;14.69;98.63;96164.67;1804380;78;20923;-84
2022/09/11 08:33:33;;;;;;;5.15;3.70;;;;;;;14.63;98.07;96169.42;1804208;78;20986;-85
2022/09/11 08:36:01;;;;;;;3.80;3.50;;;;;;;14.60;98.58;96171.96;1804414;78;21370;-83
2022/09/11 08:38:27;;;;;;;4.33;3.92;;;;;;;14.62;98.95;96169.94;1803288;78;21018;-83
2022/09/11 08:40:53;;;;;;;4.30;3.90;;;;;;;14.65;99.06;96177.38;1804304;78;21034;-84
2022/09/11 08:43:31;;;;;;;5.62;4.53;;;;;;;14.71;99.29;96177.83;1772465;78;21301;-85
2022/09/11 08:46:05;;;;;;;4.75;4.35;;;;;;;14.82;99.39;96178.17;1787925;78;20958;-84
2022/09/11 08:48:38;;;;;;;4.80;4.40;;;;;;;14.93;99.85;96176.95;1820246;78;21373;-84
2022/09/11 08:51:04;;;;;;;6.15;4.70;;;;;;;15.06;99.66;96182.59;1786550;79;20954;-84
2022/09/11 08:53:30;;;;;;;4.67;4.28;;;;;;;15.15;99.60;96177.38;1800830;78;20968;-83
2022/09/11 08:56:00;;;;;;;7.10;4.67;;;;;;;15.20;98.97;96182.77;1770676;78;21073;-84
2022/09/11 08:58:56;;;;;;;4.55;4.12;;;;;;;15.25;98.59;96179.50;1750798;81;20999;-84
2022/09/11 09:01:40;;;;;;;4.25;3.87;;;;;;;15.25;98.40;96180.30;1742128;79;21036;-87
2022/09/11 09:04:44;;;;;;;4.35;3.80;;;;;;;15.23;97.95;96182.33;1753119;79;21064;-87
2022/09/11 09:07:30;;;;;;;4.12;3.72;;;;;;;15.22;97.21;96183.34;1764491;79;20973;-87
2022/09/11 09:10:26;;;;;;;4.85;3.75;;;;;;;15.25;97.72;96184.22;1774986;79;21069;-87
2022/09/11 09:13:10;;;;;;;5.70;4.05;;;;;;;15.28;97.19;96182.48;1717492;79;20929;-87
2022/09/11 09:16:06;;;;;;;4.83;3.72;;;;;;;15.36;97.46;96173.56;1766194;79;21040;-87
2022/09/11 09:18:42;;;;;;;4.72;3.80;;;;;;;15.44;97.64;96182.94;1738011;82;20967;-86
2022/09/11 09:21:34;;;;;;;3.95;3.55;;;;;;;15.51;97.16;96180.56;1772348;79;20941;-86
2022/09/11 09:24:04;;;;;;;3.77;3.37;;;;;;;15.55;97.53;96186.16;1753388;79;21327;-87
2022/09/11 09:26:38;;;;;;;4.25;3.85;;;;;;;15.61;96.45;96186.61;1792414;79;21017;-87
2022/09/11 09:29:07;;;;;;;4.08;3.75;;;;;;;15.53;95.98;96185.06;1794947;79;21012;-87
2022/09/11 09:31:36;;;;;;;3.83;3.45;;;;;;;15.52;96.63;96199.18;1742256;81;21000;-86
2022/09/11 09:34:08;;;;;;;3.75;3.40;;;;;;;15.61;95.43;96193.16;1784987;79;21052;-87
2022/09/11 09:37:05;;;;;;;3.52;3.22;;;;;;;15.67;95.37;96191.00;1751490;80;21033;-87
2022/09/11 09:39:30;;;;;;;4.47;3.60;;;;;;;15.84;95.89;96185.98;1754231;79;21332;-85
2022/09/11 09:42:28;;;;;;;3.52;3.22;;;;;;;16.00;95.05;96184.59;1788255;79;21001;-87
2022/09/11 09:45:33;;;;;;;3.58;3.27;;;;;;;16.04;93.68;96176.56;1776199;79;20915;-87
2022/09/11 09:48:00;;;;;;;4.22;2.85;;;;;;;16.02;93.72;96177.30;1793862;79;21023;-86
2022/09/11 09:50:32;;;;;;;3.27;2.67;;;;;;;15.97;93.90;96179.79;1776491;80;20981;-85
2022/09/11 09:53:09;;;;;;;3.10;2.80;;;;;;;15.89;92.90;96185.60;1777456;80;20953;-85
2022/09/11 09:55:35;;;;;;;3.00;2.70;;;;;;;15.85;92.02;96186.27;1735263;80;20926;-85
2022/09/11 09:58:02;;;;;;;3.33;3.02;;;;;;;15.79;91.97;96189.27;1733862;81;20965;-85
2022/09/11 10:00:31;;;;;;;2.62;2.42;;;;;;;15.73;92.68;96187.50;1743283;81;21018;-84
2022/09/11 10:02:57;;;;;;;4.87;3.15;;;;;;;15.73;92.60;96192.73;1779688;79;21430;-84
2022/09/11 10:05:41;;;;;;;2.83;2.60;;;;;;;15.79;93.46;96197.63;1791941;80;20982;-85
2022/09/11 10:08:26;;;;;;;2.65;2.45;;;;;;;15.89;92.35;96188.22;1740369;80;21001;-84
2022/09/11 10:10:58;;;;;;;2.55;2.35;;;;;;;15.98;91.79;96188.73;1790133;79;21407;-85
2022/09/11 10:13:28;;;;;;;4.12;2.80;;;;;;;16.04;91.70;96185.23;1763802;81;20926;-85
2022/09/11 10:15:59;;;;;;;2.47;2.27;;;;;;;16.13;91.80;96188.36;1770027;80;20925;-85
2022/09/11 10:18:36;;;;;;;2.85;1.95;;;;;;;16.12;91.09;96188.07;1747142;80;20989;-85
2022/09/11 10:21:21;;;;;;;3.20;2.33;;;;;;;16.07;90.06;96193.16;1794820;79;20935;-84
2022/09/11 10:24:00;;;;;;;2.27;2.08;;;;;;;15.99;90.88;96189.54;1794114;80;20911;-84
2022/09/11 10:26:31;;;;;;;2.67;2.08;;;;;;;15.95;91.30;96187.08;1783097;80;21424;-84
2022/09/11 10:29:16;;;;;;;2.80;2.20;;;;;;;15.99;92.44;96185.09;1782314;80;21004;-84
2022/09/11 10:31:48;;;;;;;2.65;2.45;;;;;;;16.05;92.56;96187.34;1767074;80;20975;-85
2022/09/11 10:34:17;;;;;;;;;;;;;;;16.05;92.69;96180.78;1775925;80;20926;-85
2022/09/11 10:36:55;;;;;;;2.90;2.55;;;;;;;16.08;93.58;96188.20;1774464;80;20324;-83
2022/09/11 10:39:23;;;;;;;3.67;2.65;;;;;;;16.00;92.53;96185.89;1781382;80;20937;-85
2022/09/11 10:41:52;;;;;;;3.98;2.22;;;;;;;15.97;93.36;96189.77;1754439;80;21051;-85
2022/09/11 10:44:20;;;;;;;4.50;2.90;;;;;;;16.06;94.35;96194.97;1761583;80;20945;-85
2022/09/11 10:46:54;;;;;;;3.85;2.95;;;;;;;16.14;93.94;96193.38;1778892;80;20938;-84
2022/09/11 10:49:21;;;;;;;2.55;1.90;;;;;;;16.20;93.01;96187.75;1706157;81;21017;-84
2022/09/11 10:52:04;;;;;;;2.95;2.00;;;;;;;16.27;92.65;96195.52;1787644;80;20992;-84
2022/09/11 10:54:58;;;;;;;2.12;1.98;;;;;;;16.33;92.83;96192.83;1761392;80;20941;-85
2022/09/11 10:57:49;;;;;;;2.33;2.05;;;;;;;16.41;92.55;96193.81;1758190;80;20961;-85
2022/09/11 11:00:20;;;;;;;2.85;1.82;;;;;;;16.47;90.92;96197.39;1781048;79;20938;-85
2022/09/11 11:02:56;;;;;;;2.87;1.65;;;;;;;16.42;91.70;96199.34;1787020;80;21455;-83
2022/09/11 11:05:53;;;;;;;3.27;2.08;;;;;;;16.46;91.73;96197.10;1752884;81;21017;-85
2022/09/11 11:08:47;;;;;;;2.87;1.67;;;;;;;16.46;91.26;96202.34;1757805;80;20918;-84
2022/09/11 11:11:28;;;;;;;2.30;1.85;;;;;;;16.35;89.98;96202.58;1781589;80;20998;-85
2022/09/11 11:14:19;;;;;;;2.05;1.60;;;;;;;16.28;89.60;96197.95;1782931;80;20921;-85
2022/09/11 11:17:17;;;;;;;2.58;1.90;;;;;;;16.21;89.02;96194.08;1758931;80;20941;-85
2022/09/11 11:20:02;;;;;;;3.33;1.62;;;;;;;16.26;90.62;96199.16;1762463;80;20937;-84
2022/09/11 11:22:48;;;;;;;3.33;2.00;;;;;;;16.36;91.01;96200.24;1770038;80;20980;-85
2022/09/11 11:25:49;;;;;;;4.03;1.82;;;;;;;16.43;89.35;96202.77;1749908;80;21030;-85
2022/09/11 11:28:34;;;;;;;2.08;1.87;;;;;;;16.45;90.20;96200.23;1741965;80;20982;-85
2022/09/11 11:31:18;;;;;;;2.05;1.77;;;;;;;16.65;90.97;96199.95;1762005;80;21006;-85
2022/09/11 11:33:52;;;;;;;1.85;1.70;;;;;;;16.75;89.88;96200.73;1743672;80;21023;-85
2022/09/11 11:36:33;;;;;;;2.58;1.70;;;;;;;16.86;90.39;96199.17;1735975;80;21021;-86
2022/09/11 11:39:14;;;;;;;2.62;1.50;;;;;;;16.92;88.58;96204.34;1733552;81;20973;-85
2022/09/11 11:41:44;;;;;;;1.72;1.50;;;;;;;16.88;87.10;96205.78;1767991;80;20993;-85
2022/09/11 11:44:24;;;;;;;3.27;1.52;;;;;;;16.83;87.60;96213.55;1756703;80;21639;-85
2022/09/11 11:46:51;;;;;;;1.70;1.60;;;;;;;16.82;86.61;96207.21;1765360;80;21038;-85
2022/09/11 11:49:44;;;;;;;2.60;1.70;;;;;;;16.83;86.86;96204.87;1735012;80;20942;-85
2022/09/11 11:52:34;;;;;;;2.00;1.80;;;;;;;16.83;87.01;96202.25;1722572;81;20953;-86